sensor_id;sensor_type;location;lat;lon;timestamp;P1;durP1;ratioP1;P2;durP2;ratioP2
25497;SDS011;13406;53.380;7.226;2023-10-19T00:00:59;8.20;;;4.90;;
25497;SDS011;13406;53.380;7.226;2023-10-19T00:03:25;7.53;;;5.20;;
25497;SDS011;13406;53.380;7.226;2023-10-19T00:05:50;6.80;;;5.60;;
25497;SDS011;13406;53.380;7.226;2023-10-19T00:08:16;6.97;;;5.50;;
25497;SDS011;13406;53.380;7.226;2023-10-19T00:10:46;7.67;;;5.80;;
25497;SDS011;13406;53.380;7.226;2023-10-19T00:13:20;7.27;;;5.33;;
25497;SDS011;13406;53.380;7.226;2023-10-19T00:15:47;9.90;;;6.23;;
25497;SDS011;13406;53.380;7.226;2023-10-19T00:18:17;6.87;;;5.30;;
25497;SDS011;13406;53.380;7.226;2023-10-19T00:20:44;7.90;;;6.30;;
25497;SDS011;13406;53.380;7.226;2023-10-19T00:23:14;8.40;;;5.83;;
25497;SDS011;13406;53.380;7.226;2023-10-19T00:25:44;7.00;;;5.73;;
25497;SDS011;13406;53.380;7.226;2023-10-19T00:28:15;8.63;;;6.70;;
25497;SDS011;13406;53.380;7.226;2023-10-19T00:30:42;7.03;;;5.60;;
25497;SDS011;13406;53.380;7.226;2023-10-19T00:35:41;8.63;;;6.13;;
25497;SDS011;13406;53.380;7.226;2023-10-19T00:38:16;7.40;;;5.93;;
25497;SDS011;13406;53.380;7.226;2023-10-19T00:40:54;8.47;;;6.53;;
25497;SDS011;13406;53.380;7.226;2023-10-19T00:43:49;8.30;;;6.43;;
25497;SDS011;13406;53.380;7.226;2023-10-19T00:46:18;8.20;;;6.43;;
25497;SDS011;13406;53.380;7.226;2023-10-19T00:49:05;8.73;;;6.90;;
25497;SDS011;13406;53.380;7.226;2023-10-19T00:51:41;8.40;;;6.20;;
25497;SDS011;13406;53.380;7.226;2023-10-19T00:54:27;9.67;;;6.43;;
25497;SDS011;13406;53.380;7.226;2023-10-19T00:56:59;9.20;;;6.70;;
25497;SDS011;13406;53.380;7.226;2023-10-19T00:59:29;12.00;;;6.50;;
25497;SDS011;13406;53.380;7.226;2023-10-19T01:01:56;9.30;;;6.73;;
25497;SDS011;13406;53.380;7.226;2023-10-19T01:04:40;7.63;;;6.57;;
25497;SDS011;13406;53.380;7.226;2023-10-19T01:07:08;9.90;;;7.10;;
25497;SDS011;13406;53.380;7.226;2023-10-19T01:09:46;11.17;;;7.50;;
25497;SDS011;13406;53.380;7.226;2023-10-19T01:12:12;8.73;;;7.03;;
25497;SDS011;13406;53.380;7.226;2023-10-19T01:17:43;11.87;;;7.60;;
25497;SDS011;13406;53.380;7.226;2023-10-19T01:20:12;10.90;;;6.80;;
25497;SDS011;13406;53.380;7.226;2023-10-19T01:22:50;9.97;;;7.00;;
25497;SDS011;13406;53.380;7.226;2023-10-19T01:25:32;8.80;;;6.83;;
25497;SDS011;13406;53.380;7.226;2023-10-19T01:28:11;12.00;;;7.30;;
25497;SDS011;13406;53.380;7.226;2023-10-19T01:30:41;10.87;;;8.10;;
25497;SDS011;13406;53.380;7.226;2023-10-19T01:33:07;10.93;;;7.80;;
25497;SDS011;13406;53.380;7.226;2023-10-19T01:35:38;8.83;;;7.20;;
25497;SDS011;13406;53.380;7.226;2023-10-19T01:38:22;11.20;;;7.90;;
25497;SDS011;13406;53.380;7.226;2023-10-19T01:40:48;11.03;;;8.17;;
25497;SDS011;13406;53.380;7.226;2023-10-19T01:43:16;10.63;;;7.90;;
25497;SDS011;13406;53.380;7.226;2023-10-19T01:45:55;10.13;;;8.30;;
25497;SDS011;13406;53.380;7.226;2023-10-19T01:48:20;11.83;;;8.53;;
25497;SDS011;13406;53.380;7.226;2023-10-19T01:50:53;9.83;;;7.40;;
25497;SDS011;13406;53.380;7.226;2023-10-19T01:53:18;11.90;;;8.03;;
25497;SDS011;13406;53.380;7.226;2023-10-19T01:55:50;10.77;;;8.40;;
25497;SDS011;13406;53.380;7.226;2023-10-19T01:58:22;10.27;;;8.07;;
25497;SDS011;13406;53.380;7.226;2023-10-19T02:00:50;10.00;;;7.30;;
25497;SDS011;13406;53.380;7.226;2023-10-19T02:03:19;10.50;;;8.40;;
25497;SDS011;13406;53.380;7.226;2023-10-19T02:05:46;10.43;;;9.07;;
25497;SDS011;13406;53.380;7.226;2023-10-19T02:08:14;11.20;;;8.07;;
25497;SDS011;13406;53.380;7.226;2023-10-19T02:10:45;10.47;;;7.17;;
25497;SDS011;13406;53.380;7.226;2023-10-19T02:13:11;8.37;;;6.70;;
25497;SDS011;13406;53.380;7.226;2023-10-19T02:15:40;11.43;;;8.00;;
25497;SDS011;13406;53.380;7.226;2023-10-19T02:18:07;9.47;;;7.70;;
25497;SDS011;13406;53.380;7.226;2023-10-19T02:20:34;10.13;;;7.30;;
25497;SDS011;13406;53.380;7.226;2023-10-19T02:22:59;9.60;;;7.60;;
25497;SDS011;13406;53.380;7.226;2023-10-19T02:25:28;13.43;;;7.87;;
25497;SDS011;13406;53.380;7.226;2023-10-19T02:27:58;10.13;;;8.60;;
25497;SDS011;13406;53.380;7.226;2023-10-19T02:30:24;8.97;;;7.20;;
25497;SDS011;13406;53.380;7.226;2023-10-19T02:32:50;9.37;;;7.10;;
25497;SDS011;13406;53.380;7.226;2023-10-19T02:35:15;10.63;;;8.13;;
25497;SDS011;13406;53.380;7.226;2023-10-19T02:37:41;11.67;;;8.00;;
25497;SDS011;13406;53.380;7.226;2023-10-19T02:40:07;9.00;;;7.20;;
25497;SDS011;13406;53.380;7.226;2023-10-19T02:42:44;10.00;;;8.20;;
25497;SDS011;13406;53.380;7.226;2023-10-19T02:45:12;10.27;;;6.90;;
25497;SDS011;13406;53.380;7.226;2023-10-19T02:47:40;9.47;;;7.43;;
25497;SDS011;13406;53.380;7.226;2023-10-19T02:50:07;8.27;;;6.87;;
25497;SDS011;13406;53.380;7.226;2023-10-19T02:52:37;9.93;;;7.83;;
25497;SDS011;13406;53.380;7.226;2023-10-19T02:55:03;8.43;;;6.67;;
25497;SDS011;13406;53.380;7.226;2023-10-19T02:57:29;8.07;;;6.00;;
25497;SDS011;13406;53.380;7.226;2023-10-19T02:59:56;8.10;;;5.80;;
25497;SDS011;13406;53.380;7.226;2023-10-19T03:02:23;9.87;;;6.90;;
25497;SDS011;13406;53.380;7.226;2023-10-19T03:04:52;10.50;;;7.40;;
25497;SDS011;13406;53.380;7.226;2023-10-19T03:07:20;7.50;;;6.00;;
25497;SDS011;13406;53.380;7.226;2023-10-19T03:09:46;7.20;;;5.53;;
25497;SDS011;13406;53.380;7.226;2023-10-19T03:12:14;8.77;;;6.03;;
25497;SDS011;13406;53.380;7.226;2023-10-19T03:14:40;6.73;;;5.90;;
25497;SDS011;13406;53.380;7.226;2023-10-19T03:17:11;7.23;;;5.53;;
25497;SDS011;13406;53.380;7.226;2023-10-19T03:19:38;7.50;;;5.43;;
25497;SDS011;13406;53.380;7.226;2023-10-19T03:22:03;5.97;;;4.63;;
25497;SDS011;13406;53.380;7.226;2023-10-19T03:24:31;6.90;;;5.67;;
25497;SDS011;13406;53.380;7.226;2023-10-19T03:27:08;6.73;;;5.13;;
25497;SDS011;13406;53.380;7.226;2023-10-19T03:29:52;8.23;;;5.03;;
25497;SDS011;13406;53.380;7.226;2023-10-19T03:32:21;6.90;;;5.10;;
25497;SDS011;13406;53.380;7.226;2023-10-19T03:34:51;5.17;;;3.63;;
25497;SDS011;13406;53.380;7.226;2023-10-19T03:37:20;6.73;;;4.33;;
25497;SDS011;13406;53.380;7.226;2023-10-19T03:39:50;6.70;;;4.87;;
25497;SDS011;13406;53.380;7.226;2023-10-19T03:42:16;5.67;;;4.10;;
25497;SDS011;13406;53.380;7.226;2023-10-19T03:44:42;6.00;;;4.40;;
25497;SDS011;13406;53.380;7.226;2023-10-19T03:47:17;6.77;;;4.37;;
25497;SDS011;13406;53.380;7.226;2023-10-19T03:49:46;6.20;;;4.67;;
25497;SDS011;13406;53.380;7.226;2023-10-19T03:52:12;4.93;;;3.80;;
25497;SDS011;13406;53.380;7.226;2023-10-19T03:54:38;8.00;;;3.83;;
25497;SDS011;13406;53.380;7.226;2023-10-19T03:57:04;5.10;;;3.47;;
25497;SDS011;13406;53.380;7.226;2023-10-19T03:59:39;5.17;;;3.80;;
25497;SDS011;13406;53.380;7.226;2023-10-19T04:02:05;5.43;;;3.60;;
25497;SDS011;13406;53.380;7.226;2023-10-19T04:04:57;5.17;;;3.80;;
25497;SDS011;13406;53.380;7.226;2023-10-19T04:07:23;5.57;;;3.40;;
25497;SDS011;13406;53.380;7.226;2023-10-19T04:09:51;4.53;;;3.30;;
25497;SDS011;13406;53.380;7.226;2023-10-19T04:12:29;5.03;;;3.50;;
25497;SDS011;13406;53.380;7.226;2023-10-19T04:14:56;4.90;;;3.30;;
25497;SDS011;13406;53.380;7.226;2023-10-19T04:17:21;4.30;;;3.00;;
25497;SDS011;13406;53.380;7.226;2023-10-19T04:19:48;4.13;;;2.87;;
25497;SDS011;13406;53.380;7.226;2023-10-19T04:22:14;4.47;;;3.07;;
25497;SDS011;13406;53.380;7.226;2023-10-19T04:24:48;3.97;;;2.70;;
25497;SDS011;13406;53.380;7.226;2023-10-19T04:27:14;4.50;;;3.30;;
25497;SDS011;13406;53.380;7.226;2023-10-19T04:29:39;5.17;;;3.80;;
25497;SDS011;13406;53.380;7.226;2023-10-19T04:32:08;4.63;;;3.23;;
25497;SDS011;13406;53.380;7.226;2023-10-19T04:34:34;4.97;;;3.00;;
25497;SDS011;13406;53.380;7.226;2023-10-19T04:37:01;4.37;;;3.10;;
25497;SDS011;13406;53.380;7.226;2023-10-19T04:39:28;4.70;;;3.50;;
25497;SDS011;13406;53.380;7.226;2023-10-19T04:41:55;4.40;;;3.17;;
25497;SDS011;13406;53.380;7.226;2023-10-19T04:44:21;4.70;;;3.20;;
25497;SDS011;13406;53.380;7.226;2023-10-19T04:46:46;4.03;;;2.90;;
25497;SDS011;13406;53.380;7.226;2023-10-19T04:49:11;4.80;;;3.27;;
25497;SDS011;13406;53.380;7.226;2023-10-19T04:51:37;4.23;;;3.13;;
25497;SDS011;13406;53.380;7.226;2023-10-19T04:54:04;4.40;;;2.90;;
25497;SDS011;13406;53.380;7.226;2023-10-19T04:56:30;4.27;;;3.23;;
25497;SDS011;13406;53.380;7.226;2023-10-19T04:58:57;4.50;;;3.40;;
25497;SDS011;13406;53.380;7.226;2023-10-19T05:01:22;5.07;;;3.70;;
25497;SDS011;13406;53.380;7.226;2023-10-19T05:03:48;4.60;;;3.30;;
25497;SDS011;13406;53.380;7.226;2023-10-19T05:06:13;4.80;;;3.03;;
25497;SDS011;13406;53.380;7.226;2023-10-19T05:08:39;4.90;;;3.30;;
25497;SDS011;13406;53.380;7.226;2023-10-19T05:11:04;4.67;;;3.50;;
25497;SDS011;13406;53.380;7.226;2023-10-19T05:13:31;4.67;;;3.40;;
25497;SDS011;13406;53.380;7.226;2023-10-19T05:15:58;4.60;;;3.10;;
25497;SDS011;13406;53.380;7.226;2023-10-19T05:18:26;5.10;;;3.33;;
25497;SDS011;13406;53.380;7.226;2023-10-19T05:20:52;4.80;;;3.37;;
25497;SDS011;13406;53.380;7.226;2023-10-19T05:23:21;4.60;;;3.00;;
25497;SDS011;13406;53.380;7.226;2023-10-19T05:25:53;4.57;;;3.43;;
25497;SDS011;13406;53.380;7.226;2023-10-19T05:28:25;4.50;;;3.10;;
25497;SDS011;13406;53.380;7.226;2023-10-19T05:30:51;3.93;;;2.70;;
25497;SDS011;13406;53.380;7.226;2023-10-19T05:33:16;4.50;;;3.10;;
25497;SDS011;13406;53.380;7.226;2023-10-19T05:35:45;4.47;;;3.20;;
25497;SDS011;13406;53.380;7.226;2023-10-19T05:38:14;4.90;;;3.20;;
25497;SDS011;13406;53.380;7.226;2023-10-19T05:40:40;5.43;;;3.70;;
25497;SDS011;13406;53.380;7.226;2023-10-19T05:43:08;4.30;;;3.17;;
25497;SDS011;13406;53.380;7.226;2023-10-19T05:45:34;4.83;;;3.37;;
25497;SDS011;13406;53.380;7.226;2023-10-19T05:48:01;4.82;;;3.30;;
25497;SDS011;13406;53.380;7.226;2023-10-19T05:50:28;3.83;;;2.77;;
25497;SDS011;13406;53.380;7.226;2023-10-19T05:52:54;4.30;;;3.27;;
25497;SDS011;13406;53.380;7.226;2023-10-19T05:55:19;4.77;;;3.13;;
25497;SDS011;13406;53.380;7.226;2023-10-19T05:57:46;4.03;;;2.90;;
25497;SDS011;13406;53.380;7.226;2023-10-19T06:00:12;6.00;;;3.10;;
25497;SDS011;13406;53.380;7.226;2023-10-19T06:02:42;4.87;;;3.07;;
25497;SDS011;13406;53.380;7.226;2023-10-19T06:05:10;4.33;;;3.23;;
25497;SDS011;13406;53.380;7.226;2023-10-19T06:07:36;4.57;;;2.90;;
25497;SDS011;13406;53.380;7.226;2023-10-19T06:10:02;4.40;;;3.20;;
25497;SDS011;13406;53.380;7.226;2023-10-19T06:12:31;4.23;;;2.90;;
25497;SDS011;13406;53.380;7.226;2023-10-19T06:14:57;5.30;;;3.50;;
25497;SDS011;13406;53.380;7.226;2023-10-19T06:17:23;4.10;;;2.90;;
25497;SDS011;13406;53.380;7.226;2023-10-19T06:19:49;4.33;;;2.90;;
25497;SDS011;13406;53.380;7.226;2023-10-19T06:22:14;3.97;;;2.80;;
25497;SDS011;13406;53.380;7.226;2023-10-19T06:24:41;3.93;;;2.50;;
25497;SDS011;13406;53.380;7.226;2023-10-19T06:27:08;4.30;;;2.87;;
25497;SDS011;13406;53.380;7.226;2023-10-19T06:29:34;4.23;;;2.90;;
25497;SDS011;13406;53.380;7.226;2023-10-19T06:32:00;4.13;;;3.00;;
25497;SDS011;13406;53.380;7.226;2023-10-19T06:34:25;4.13;;;2.50;;
25497;SDS011;13406;53.380;7.226;2023-10-19T06:36:52;4.00;;;2.57;;
25497;SDS011;13406;53.380;7.226;2023-10-19T06:39:19;4.10;;;2.23;;
25497;SDS011;13406;53.380;7.226;2023-10-19T06:41:45;4.00;;;2.43;;
25497;SDS011;13406;53.380;7.226;2023-10-19T06:44:11;5.40;;;2.70;;
25497;SDS011;13406;53.380;7.226;2023-10-19T06:46:37;4.13;;;2.60;;
25497;SDS011;13406;53.380;7.226;2023-10-19T06:49:04;5.20;;;3.30;;
25497;SDS011;13406;53.380;7.226;2023-10-19T06:51:30;3.93;;;2.57;;
25497;SDS011;13406;53.380;7.226;2023-10-19T06:53:55;3.60;;;2.63;;
25497;SDS011;13406;53.380;7.226;2023-10-19T06:56:21;4.10;;;2.70;;
25497;SDS011;13406;53.380;7.226;2023-10-19T06:58:46;4.40;;;3.10;;
25497;SDS011;13406;53.380;7.226;2023-10-19T07:01:13;4.37;;;3.00;;
25497;SDS011;13406;53.380;7.226;2023-10-19T07:03:41;3.80;;;2.80;;
25497;SDS011;13406;53.380;7.226;2023-10-19T07:06:06;4.17;;;2.60;;
25497;SDS011;13406;53.380;7.226;2023-10-19T07:08:33;4.20;;;2.67;;
25497;SDS011;13406;53.380;7.226;2023-10-19T07:10:58;5.10;;;2.97;;
25497;SDS011;13406;53.380;7.226;2023-10-19T07:13:25;5.07;;;3.43;;
25497;SDS011;13406;53.380;7.226;2023-10-19T07:15:51;4.93;;;2.97;;
25497;SDS011;13406;53.380;7.226;2023-10-19T07:18:16;3.67;;;2.70;;
25497;SDS011;13406;53.380;7.226;2023-10-19T07:20:42;4.10;;;2.73;;
25497;SDS011;13406;53.380;7.226;2023-10-19T07:23:08;3.30;;;2.30;;
25497;SDS011;13406;53.380;7.226;2023-10-19T07:25:51;4.30;;;2.70;;
25497;SDS011;13406;53.380;7.226;2023-10-19T07:28:19;3.50;;;2.40;;
25497;SDS011;13406;53.380;7.226;2023-10-19T07:30:45;3.83;;;2.40;;
25497;SDS011;13406;53.380;7.226;2023-10-19T07:33:16;3.90;;;2.47;;
25497;SDS011;13406;53.380;7.226;2023-10-19T07:35:48;4.07;;;2.30;;
25497;SDS011;13406;53.380;7.226;2023-10-19T07:38:23;3.30;;;1.90;;
25497;SDS011;13406;53.380;7.226;2023-10-19T07:40:50;3.57;;;2.37;;
25497;SDS011;13406;53.380;7.226;2023-10-19T07:43:19;4.00;;;2.40;;
25497;SDS011;13406;53.380;7.226;2023-10-19T07:45:48;3.40;;;2.30;;
25497;SDS011;13406;53.380;7.226;2023-10-19T07:48:14;3.60;;;2.10;;
25497;SDS011;13406;53.380;7.226;2023-10-19T07:50:40;5.40;;;2.30;;
25497;SDS011;13406;53.380;7.226;2023-10-19T07:53:05;3.60;;;2.00;;
25497;SDS011;13406;53.380;7.226;2023-10-19T07:55:31;3.63;;;2.00;;
25497;SDS011;13406;53.380;7.226;2023-10-19T07:57:57;4.10;;;2.50;;
25497;SDS011;13406;53.380;7.226;2023-10-19T08:00:28;3.10;;;1.73;;
25497;SDS011;13406;53.380;7.226;2023-10-19T08:02:58;3.37;;;1.77;;
25497;SDS011;13406;53.380;7.226;2023-10-19T08:05:24;3.20;;;1.97;;
25497;SDS011;13406;53.380;7.226;2023-10-19T08:07:50;3.13;;;1.53;;
25497;SDS011;13406;53.380;7.226;2023-10-19T08:10:16;3.33;;;1.83;;
25497;SDS011;13406;53.380;7.226;2023-10-19T08:12:42;3.00;;;1.50;;
25497;SDS011;13406;53.380;7.226;2023-10-19T08:15:10;2.90;;;1.53;;
25497;SDS011;13406;53.380;7.226;2023-10-19T08:17:37;3.13;;;1.73;;
25497;SDS011;13406;53.380;7.226;2023-10-19T08:20:04;2.93;;;1.40;;
25497;SDS011;13406;53.380;7.226;2023-10-19T08:22:33;3.00;;;1.30;;
25497;SDS011;13406;53.380;7.226;2023-10-19T08:25:01;3.00;;;1.57;;
25497;SDS011;13406;53.380;7.226;2023-10-19T08:27:29;3.00;;;1.57;;
25497;SDS011;13406;53.380;7.226;2023-10-19T08:29:54;3.03;;;1.40;;
25497;SDS011;13406;53.380;7.226;2023-10-19T08:32:20;3.30;;;1.70;;
25497;SDS011;13406;53.380;7.226;2023-10-19T08:34:46;2.60;;;1.17;;
25497;SDS011;13406;53.380;7.226;2023-10-19T08:37:11;3.30;;;1.50;;
25497;SDS011;13406;53.380;7.226;2023-10-19T08:39:38;3.13;;;1.60;;
25497;SDS011;13406;53.380;7.226;2023-10-19T08:42:04;3.10;;;1.73;;
25497;SDS011;13406;53.380;7.226;2023-10-19T08:44:30;2.53;;;1.03;;
25497;SDS011;13406;53.380;7.226;2023-10-19T08:46:56;2.80;;;1.10;;
25497;SDS011;13406;53.380;7.226;2023-10-19T08:49:25;3.10;;;1.60;;
25497;SDS011;13406;53.380;7.226;2023-10-19T08:51:52;2.80;;;1.43;;
25497;SDS011;13406;53.380;7.226;2023-10-19T08:54:19;2.43;;;1.13;;
25497;SDS011;13406;53.380;7.226;2023-10-19T08:56:45;2.70;;;1.30;;
25497;SDS011;13406;53.380;7.226;2023-10-19T08:59:12;2.50;;;1.10;;
25497;SDS011;13406;53.380;7.226;2023-10-19T09:01:40;2.60;;;1.17;;
25497;SDS011;13406;53.380;7.226;2023-10-19T09:04:09;2.53;;;1.23;;
25497;SDS011;13406;53.380;7.226;2023-10-19T09:06:41;2.70;;;1.30;;
25497;SDS011;13406;53.380;7.226;2023-10-19T09:09:09;2.90;;;1.50;;
25497;SDS011;13406;53.380;7.226;2023-10-19T09:11:48;2.50;;;1.10;;
25497;SDS011;13406;53.380;7.226;2023-10-19T09:14:17;2.60;;;1.30;;
25497;SDS011;13406;53.380;7.226;2023-10-19T09:16:58;2.43;;;1.00;;
25497;SDS011;13406;53.380;7.226;2023-10-19T09:19:41;2.43;;;1.10;;
25497;SDS011;13406;53.380;7.226;2023-10-19T09:22:07;2.77;;;1.20;;
25497;SDS011;13406;53.380;7.226;2023-10-19T09:24:41;2.47;;;1.10;;
25497;SDS011;13406;53.380;7.226;2023-10-19T09:27:07;2.80;;;1.10;;
25497;SDS011;13406;53.380;7.226;2023-10-19T09:29:33;2.77;;;1.17;;
25497;SDS011;13406;53.380;7.226;2023-10-19T09:31:58;2.27;;;0.93;;
25497;SDS011;13406;53.380;7.226;2023-10-19T09:34:29;2.60;;;1.10;;
25497;SDS011;13406;53.380;7.226;2023-10-19T09:36:59;2.97;;;1.00;;
25497;SDS011;13406;53.380;7.226;2023-10-19T09:39:29;3.43;;;1.00;;
25497;SDS011;13406;53.380;7.226;2023-10-19T09:42:10;2.83;;;1.00;;
25497;SDS011;13406;53.380;7.226;2023-10-19T09:44:40;2.80;;;1.30;;
25497;SDS011;13406;53.380;7.226;2023-10-19T09:47:09;2.40;;;0.90;;
25497;SDS011;13406;53.380;7.226;2023-10-19T09:49:49;2.30;;;0.90;;
25497;SDS011;13406;53.380;7.226;2023-10-19T09:52:15;2.17;;;0.80;;
25497;SDS011;13406;53.380;7.226;2023-10-19T09:57:10;2.40;;;1.10;;
25497;SDS011;13406;53.380;7.226;2023-10-19T09:59:42;2.57;;;1.10;;
25497;SDS011;13406;53.380;7.226;2023-10-19T10:02:15;2.40;;;1.10;;
25497;SDS011;13406;53.380;7.226;2023-10-19T10:04:42;2.97;;;1.30;;
25497;SDS011;13406;53.380;7.226;2023-10-19T10:07:12;2.97;;;1.10;;
25497;SDS011;13406;53.380;7.226;2023-10-19T10:09:41;3.00;;;1.13;;
25497;SDS011;13406;53.380;7.226;2023-10-19T10:17:20;2.30;;;0.90;;
25497;SDS011;13406;53.380;7.226;2023-10-19T10:19:47;2.73;;;1.00;;
25497;SDS011;13406;53.380;7.226;2023-10-19T10:22:13;2.70;;;1.07;;
25497;SDS011;13406;53.380;7.226;2023-10-19T10:24:45;2.50;;;1.00;;
25497;SDS011;13406;53.380;7.226;2023-10-19T10:27:11;2.60;;;1.20;;
25497;SDS011;13406;53.380;7.226;2023-10-19T10:30:00;3.13;;;1.30;;
25497;SDS011;13406;53.380;7.226;2023-10-19T10:35:08;2.80;;;1.10;;
25497;SDS011;13406;53.380;7.226;2023-10-19T10:37:35;4.17;;;1.30;;
25497;SDS011;13406;53.380;7.226;2023-10-19T10:40:01;2.50;;;1.10;;
25497;SDS011;13406;53.380;7.226;2023-10-19T10:42:28;3.00;;;1.47;;
25497;SDS011;13406;53.380;7.226;2023-10-19T10:44:54;2.83;;;1.00;;
25497;SDS011;13406;53.380;7.226;2023-10-19T10:47:21;2.23;;;1.03;;
25497;SDS011;13406;53.380;7.226;2023-10-19T10:49:53;2.83;;;1.27;;
25497;SDS011;13406;53.380;7.226;2023-10-19T10:52:33;2.80;;;1.23;;
25497;SDS011;13406;53.380;7.226;2023-10-19T10:55:15;2.47;;;1.10;;
25497;SDS011;13406;53.380;7.226;2023-10-19T10:57:41;2.73;;;1.20;;
25497;SDS011;13406;53.380;7.226;2023-10-19T11:00:09;2.53;;;1.13;;
25497;SDS011;13406;53.380;7.226;2023-10-19T11:02:37;2.50;;;1.00;;
25497;SDS011;13406;53.380;7.226;2023-10-19T11:05:08;3.40;;;1.50;;
25497;SDS011;13406;53.380;7.226;2023-10-19T11:07:37;2.50;;;1.10;;
25497;SDS011;13406;53.380;7.226;2023-10-19T11:10:28;2.47;;;1.00;;
25497;SDS011;13406;53.380;7.226;2023-10-19T11:13:01;2.60;;;1.30;;
25497;SDS011;13406;53.380;7.226;2023-10-19T11:15:27;2.60;;;1.30;;
25497;SDS011;13406;53.380;7.226;2023-10-19T11:17:53;2.50;;;1.17;;
25497;SDS011;13406;53.380;7.226;2023-10-19T11:20:22;2.57;;;1.27;;
25497;SDS011;13406;53.380;7.226;2023-10-19T11:22:48;2.53;;;0.97;;
25497;SDS011;13406;53.380;7.226;2023-10-19T11:25:22;2.60;;;1.10;;
25497;SDS011;13406;53.380;7.226;2023-10-19T11:27:49;2.30;;;0.97;;
25497;SDS011;13406;53.380;7.226;2023-10-19T11:30:24;2.40;;;1.00;;
25497;SDS011;13406;53.380;7.226;2023-10-19T11:32:51;2.67;;;1.10;;
25497;SDS011;13406;53.380;7.226;2023-10-19T11:35:28;2.30;;;0.90;;
25497;SDS011;13406;53.380;7.226;2023-10-19T11:37:56;2.63;;;0.90;;
25497;SDS011;13406;53.380;7.226;2023-10-19T11:40:24;2.23;;;0.80;;
25497;SDS011;13406;53.380;7.226;2023-10-19T11:42:50;2.10;;;0.80;;
25497;SDS011;13406;53.380;7.226;2023-10-19T11:45:17;2.87;;;1.00;;
25497;SDS011;13406;53.380;7.226;2023-10-19T11:47:43;2.20;;;0.90;;
25497;SDS011;13406;53.380;7.226;2023-10-19T11:50:10;2.50;;;1.00;;
25497;SDS011;13406;53.380;7.226;2023-10-19T11:52:44;2.43;;;0.90;;
25497;SDS011;13406;53.380;7.226;2023-10-19T11:55:14;2.20;;;0.83;;
25497;SDS011;13406;53.380;7.226;2023-10-19T11:57:43;2.43;;;1.00;;
25497;SDS011;13406;53.380;7.226;2023-10-19T12:00:12;2.20;;;0.80;;
25497;SDS011;13406;53.380;7.226;2023-10-19T12:02:47;2.17;;;0.87;;
25497;SDS011;13406;53.380;7.226;2023-10-19T12:05:12;3.10;;;0.90;;
25497;SDS011;13406;53.380;7.226;2023-10-19T12:07:38;2.10;;;0.80;;
25497;SDS011;13406;53.380;7.226;2023-10-19T12:10:05;2.10;;;0.80;;
25497;SDS011;13406;53.380;7.226;2023-10-19T12:12:33;2.30;;;0.90;;
25497;SDS011;13406;53.380;7.226;2023-10-19T12:14:58;2.53;;;1.00;;
25497;SDS011;13406;53.380;7.226;2023-10-19T12:17:24;3.03;;;1.00;;
25497;SDS011;13406;53.380;7.226;2023-10-19T12:19:51;3.33;;;1.00;;
25497;SDS011;13406;53.380;7.226;2023-10-19T12:22:17;2.50;;;1.07;;
25497;SDS011;13406;53.380;7.226;2023-10-19T12:24:42;3.70;;;1.33;;
25497;SDS011;13406;53.380;7.226;2023-10-19T12:27:09;2.50;;;1.00;;
25497;SDS011;13406;53.380;7.226;2023-10-19T12:29:34;2.43;;;1.00;;
25497;SDS011;13406;53.380;7.226;2023-10-19T12:31:59;2.27;;;0.90;;
25497;SDS011;13406;53.380;7.226;2023-10-19T12:34:25;2.63;;;1.00;;
25497;SDS011;13406;53.380;7.226;2023-10-19T12:36:54;2.60;;;1.20;;
25497;SDS011;13406;53.380;7.226;2023-10-19T12:39:22;2.17;;;0.80;;
25497;SDS011;13406;53.380;7.226;2023-10-19T12:42:11;2.30;;;0.90;;
25497;SDS011;13406;53.380;7.226;2023-10-19T12:44:36;2.57;;;1.10;;
25497;SDS011;13406;53.380;7.226;2023-10-19T12:47:06;2.20;;;0.87;;
25497;SDS011;13406;53.380;7.226;2023-10-19T12:49:37;2.50;;;1.10;;
25497;SDS011;13406;53.380;7.226;2023-10-19T12:52:04;3.17;;;1.00;;
25497;SDS011;13406;53.380;7.226;2023-10-19T12:54:32;2.20;;;0.90;;
25497;SDS011;13406;53.380;7.226;2023-10-19T12:56:57;2.40;;;0.90;;
25497;SDS011;13406;53.380;7.226;2023-10-19T12:59:23;2.53;;;1.00;;
25497;SDS011;13406;53.380;7.226;2023-10-19T13:01:48;2.40;;;1.00;;
25497;SDS011;13406;53.380;7.226;2023-10-19T13:04:17;3.40;;;1.07;;
25497;SDS011;13406;53.380;7.226;2023-10-19T13:06:44;2.40;;;1.00;;
25497;SDS011;13406;53.380;7.226;2023-10-19T13:09:12;2.50;;;1.00;;
25497;SDS011;13406;53.380;7.226;2023-10-19T13:11:40;2.50;;;0.90;;
25497;SDS011;13406;53.380;7.226;2023-10-19T13:14:08;2.33;;;0.90;;
25497;SDS011;13406;53.380;7.226;2023-10-19T13:16:35;2.43;;;0.90;;
25497;SDS011;13406;53.380;7.226;2023-10-19T13:19:00;1.93;;;0.70;;
25497;SDS011;13406;53.380;7.226;2023-10-19T13:21:37;2.50;;;1.00;;
25497;SDS011;13406;53.380;7.226;2023-10-19T13:24:03;2.50;;;1.00;;
25497;SDS011;13406;53.380;7.226;2023-10-19T13:26:28;2.53;;;0.93;;
25497;SDS011;13406;53.380;7.226;2023-10-19T13:28:54;2.47;;;1.10;;
25497;SDS011;13406;53.380;7.226;2023-10-19T13:31:21;2.47;;;0.97;;
25497;SDS011;13406;53.380;7.226;2023-10-19T13:33:47;2.60;;;1.10;;
25497;SDS011;13406;53.380;7.226;2023-10-19T13:36:13;2.80;;;1.27;;
25497;SDS011;13406;53.380;7.226;2023-10-19T13:38:38;2.87;;;1.20;;
25497;SDS011;13406;53.380;7.226;2023-10-19T13:41:04;2.50;;;1.07;;
25497;SDS011;13406;53.380;7.226;2023-10-19T13:43:37;2.80;;;1.30;;
25497;SDS011;13406;53.380;7.226;2023-10-19T13:46:04;3.53;;;1.30;;
25497;SDS011;13406;53.380;7.226;2023-10-19T13:48:30;2.97;;;1.27;;
25497;SDS011;13406;53.380;7.226;2023-10-19T13:50:56;3.00;;;1.50;;
25497;SDS011;13406;53.380;7.226;2023-10-19T13:53:48;2.50;;;1.10;;
25497;SDS011;13406;53.380;7.226;2023-10-19T13:56:16;3.73;;;1.60;;
25497;SDS011;13406;53.380;7.226;2023-10-19T13:58:41;3.00;;;1.30;;
25497;SDS011;13406;53.380;7.226;2023-10-19T14:01:07;2.90;;;1.40;;
25497;SDS011;13406;53.380;7.226;2023-10-19T14:03:34;3.00;;;1.50;;
25497;SDS011;13406;53.380;7.226;2023-10-19T14:05:59;3.07;;;1.53;;
25497;SDS011;13406;53.380;7.226;2023-10-19T14:08:25;3.00;;;1.20;;
25497;SDS011;13406;53.380;7.226;2023-10-19T14:10:51;2.80;;;1.30;;
25497;SDS011;13406;53.380;7.226;2023-10-19T14:13:16;3.33;;;1.70;;
25497;SDS011;13406;53.380;7.226;2023-10-19T14:15:42;3.83;;;2.10;;
25497;SDS011;13406;53.380;7.226;2023-10-19T14:18:08;3.17;;;1.80;;
25497;SDS011;13406;53.380;7.226;2023-10-19T14:20:34;3.50;;;1.70;;
25497;SDS011;13406;53.380;7.226;2023-10-19T14:23:00;4.03;;;1.90;;
25497;SDS011;13406;53.380;7.226;2023-10-19T14:25:27;3.67;;;2.03;;
25497;SDS011;13406;53.380;7.226;2023-10-19T14:27:54;3.60;;;2.03;;
25497;SDS011;13406;53.380;7.226;2023-10-19T14:30:24;4.20;;;2.17;;
25497;SDS011;13406;53.380;7.226;2023-10-19T14:32:54;3.57;;;2.10;;
25497;SDS011;13406;53.380;7.226;2023-10-19T14:35:20;4.30;;;2.33;;
25497;SDS011;13406;53.380;7.226;2023-10-19T14:37:48;4.63;;;2.53;;
25497;SDS011;13406;53.380;7.226;2023-10-19T14:40:15;5.63;;;2.93;;
25497;SDS011;13406;53.380;7.226;2023-10-19T14:42:43;4.17;;;2.17;;
25497;SDS011;13406;53.380;7.226;2023-10-19T14:47:38;4.17;;;2.23;;
25497;SDS011;13406;53.380;7.226;2023-10-19T14:50:11;6.37;;;3.20;;
25497;SDS011;13406;53.380;7.226;2023-10-19T14:52:39;5.10;;;3.13;;
25497;SDS011;13406;53.380;7.226;2023-10-19T14:55:08;3.97;;;2.37;;
25497;SDS011;13406;53.380;7.226;2023-10-19T14:57:35;4.60;;;2.83;;
25497;SDS011;13406;53.380;7.226;2023-10-19T15:00:02;6.03;;;3.00;;
25497;SDS011;13406;53.380;7.226;2023-10-19T15:02:46;5.80;;;2.77;;
25497;SDS011;13406;53.380;7.226;2023-10-19T15:05:14;4.87;;;2.90;;
25497;SDS011;13406;53.380;7.226;2023-10-19T15:07:43;5.70;;;3.30;;
25497;SDS011;13406;53.380;7.226;2023-10-19T15:10:10;5.60;;;3.33;;
25497;SDS011;13406;53.380;7.226;2023-10-19T15:12:39;6.80;;;3.63;;